<?xml version="1.0" encoding="UTF-8" standalone="no" ?>
<gpx xmlns="http://www.topografix.com/GPX/1/1" xmlns:xsi="http://www.w3.org/2001/XMLSchema-instance" xsi:schemaLocation="http://www.topografix.com/GPX/1/1 http://www.topografix.com/GPX/1/1/gpx.xsd" version="1.1" creator="VisuGPX - https://www.visugpx.com">
  <metadata>
    <name>Raid Bulles : Barsuraubois</name>
    <desc><![CDATA[parcours RAID BULLES EN CHAMPAGNE 375KM]]></desc>
  </metadata>
  <wpt lat="48.1461" lon="4.76948">
    <ele>206.1</ele>
    <name><![CDATA[Ravitaillement chaud]]></name>
  </wpt>
  <wpt lat="48.14803" lon="4.83346">
    <ele>208.6</ele>
    <name><![CDATA[Départ réel]]></name>
  </wpt>
  <wpt lat="48.13585" lon="4.66919">
    <ele>253.9</ele>
    <name><![CDATA[Gravel début section]]></name>
  </wpt>
  <wpt lat="48.21735" lon="4.71382">
    <ele>168.8</ele>
  </wpt>
  <trk>
    <name><![CDATA[44. Circuit de Colombe le sec et Colombe la fosse-17237809]]></name>
    <extensions>
      <line xmlns="http://www.topografix.com/GPX/gpx_style/0/2">
        <color>00ff11</color>
        <width>4</width>
      </line>
    </extensions>
    <trkseg>
      <trkpt lat="48.26354" lon="4.79035">
        <ele>231</ele>
        <time>2024-07-03T07:51:54Z</time>
      </trkpt>
      <trkpt lat="48.26424" lon="4.78936">
        <ele>228</ele>
        <time>2024-07-03T07:52:11Z</time>
      </trkpt>
      <trkpt lat="48.26474" lon="4.78695">
        <ele>235</ele>
        <time>2024-07-03T07:52:41Z</time>
      </trkpt>
      <trkpt lat="48.26748" lon="4.78589">
        <ele>265</ele>
        <time>2024-07-03T07:53:31Z</time>
      </trkpt>
      <trkpt lat="48.27084" lon="4.78482">
        <ele>320</ele>
        <time>2024-07-03T07:54:32Z</time>
      </trkpt>
      <trkpt lat="48.26789" lon="4.77745">
        <ele>314</ele>
        <time>2024-07-03T07:56:14Z</time>
      </trkpt>
      <trkpt lat="48.26417" lon="4.77181">
        <ele>312</ele>
        <time>2024-07-03T07:57:48Z</time>
      </trkpt>
      <trkpt lat="48.2631" lon="4.77008">
        <ele>303</ele>
        <time>2024-07-03T07:58:16Z</time>
      </trkpt>
      <trkpt lat="48.26167" lon="4.76752">
        <ele>290</ele>
        <time>2024-07-03T07:58:56Z</time>
      </trkpt>
      <trkpt lat="48.26172" lon="4.7667">
        <ele>281</ele>
        <time>2024-07-03T07:59:06Z</time>
      </trkpt>
      <trkpt lat="48.26094" lon="4.766">
        <ele>272</ele>
        <time>2024-07-03T07:59:22Z</time>
      </trkpt>
      <trkpt lat="48.26028" lon="4.76694">
        <ele>272</ele>
        <time>2024-07-03T07:59:38Z</time>
      </trkpt>
      <trkpt lat="48.26017" lon="4.76869">
        <ele>275</ele>
        <time>2024-07-03T07:59:59Z</time>
      </trkpt>
      <trkpt lat="48.25997" lon="4.76974">
        <ele>270</ele>
        <time>2024-07-03T08:00:12Z</time>
      </trkpt>
      <trkpt lat="48.26021" lon="4.77069">
        <ele>276</ele>
        <time>2024-07-03T08:00:24Z</time>
      </trkpt>
      <trkpt lat="48.26034" lon="4.77203">
        <ele>279</ele>
        <time>2024-07-03T08:00:40Z</time>
      </trkpt>
      <trkpt lat="48.26062" lon="4.77324">
        <ele>283</ele>
        <time>2024-07-03T08:00:55Z</time>
      </trkpt>
      <trkpt lat="48.26102" lon="4.7738">
        <ele>287</ele>
        <time>2024-07-03T08:01:05Z</time>
      </trkpt>
      <trkpt lat="48.26215" lon="4.78284">
        <ele>232</ele>
        <time>2024-07-03T08:02:54Z</time>
      </trkpt>
      <trkpt lat="48.26191" lon="4.78275">
        <ele>232</ele>
        <time>2024-07-03T08:02:58Z</time>
      </trkpt>
      <trkpt lat="48.26208" lon="4.78349">
        <ele>228</ele>
        <time>2024-07-03T08:03:07Z</time>
      </trkpt>
      <trkpt lat="48.26053" lon="4.78435">
        <ele>222</ele>
        <time>2024-07-03T08:03:37Z</time>
      </trkpt>
      <trkpt lat="48.25979" lon="4.78518">
        <ele>217</ele>
        <time>2024-07-03T08:03:53Z</time>
      </trkpt>
      <trkpt lat="48.2578" lon="4.78604">
        <ele>214</ele>
        <time>2024-07-03T08:04:30Z</time>
      </trkpt>
      <trkpt lat="48.25713" lon="4.78579">
        <ele>212</ele>
        <time>2024-07-03T08:04:42Z</time>
      </trkpt>
      <trkpt lat="48.25646" lon="4.78533">
        <ele>213</ele>
        <time>2024-07-03T08:04:55Z</time>
      </trkpt>
      <trkpt lat="48.25488" lon="4.78501">
        <ele>217</ele>
        <time>2024-07-03T08:05:24Z</time>
      </trkpt>
      <trkpt lat="48.25562" lon="4.78893">
        <ele>229</ele>
        <time>2024-07-03T08:06:12Z</time>
      </trkpt>
      <trkpt lat="48.25579" lon="4.78993">
        <ele>227</ele>
        <time>2024-07-03T08:06:24Z</time>
      </trkpt>
      <trkpt lat="48.25584" lon="4.79038">
        <ele>226</ele>
        <time>2024-07-03T08:06:30Z</time>
      </trkpt>
      <trkpt lat="48.25562" lon="4.79163">
        <ele>228</ele>
        <time>2024-07-03T08:06:45Z</time>
      </trkpt>
      <trkpt lat="48.25532" lon="4.79297">
        <ele>233</ele>
        <time>2024-07-03T08:07:02Z</time>
      </trkpt>
      <trkpt lat="48.25529" lon="4.79363">
        <ele>233</ele>
        <time>2024-07-03T08:07:10Z</time>
      </trkpt>
      <trkpt lat="48.25518" lon="4.79467">
        <ele>231</ele>
        <time>2024-07-03T08:07:22Z</time>
      </trkpt>
      <trkpt lat="48.2552" lon="4.79557">
        <ele>232</ele>
        <time>2024-07-03T08:07:33Z</time>
      </trkpt>
      <trkpt lat="48.25513" lon="4.79561">
        <ele>233</ele>
        <time>2024-07-03T08:07:34Z</time>
      </trkpt>
      <trkpt lat="48.25516" lon="4.79574">
        <ele>233</ele>
        <time>2024-07-03T08:07:36Z</time>
      </trkpt>
      <trkpt lat="48.25513" lon="4.79596">
        <ele>234</ele>
        <time>2024-07-03T08:07:38Z</time>
      </trkpt>
      <trkpt lat="48.25525" lon="4.79615">
        <ele>235</ele>
        <time>2024-07-03T08:07:41Z</time>
      </trkpt>
      <trkpt lat="48.25502" lon="4.79622">
        <ele>237</ele>
        <time>2024-07-03T08:07:46Z</time>
      </trkpt>
      <trkpt lat="48.25512" lon="4.79658">
        <ele>239</ele>
        <time>2024-07-03T08:07:50Z</time>
      </trkpt>
      <trkpt lat="48.25526" lon="4.79756">
        <ele>242</ele>
        <time>2024-07-03T08:08:02Z</time>
      </trkpt>
      <trkpt lat="48.2555" lon="4.79744">
        <ele>240</ele>
        <time>2024-07-03T08:08:07Z</time>
      </trkpt>
      <trkpt lat="48.25551" lon="4.79758">
        <ele>241</ele>
        <time>2024-07-03T08:08:08Z</time>
      </trkpt>
      <trkpt lat="48.25619" lon="4.79749">
        <ele>236</ele>
        <time>2024-07-03T08:08:20Z</time>
      </trkpt>
      <trkpt lat="48.2564" lon="4.79758">
        <ele>234</ele>
        <time>2024-07-03T08:08:24Z</time>
      </trkpt>
      <trkpt lat="48.25658" lon="4.79798">
        <ele>233</ele>
        <time>2024-07-03T08:08:30Z</time>
      </trkpt>
      <trkpt lat="48.25676" lon="4.79865">
        <ele>232</ele>
        <time>2024-07-03T08:08:39Z</time>
      </trkpt>
      <trkpt lat="48.25689" lon="4.80044">
        <ele>231</ele>
        <time>2024-07-03T08:09:00Z</time>
      </trkpt>
      <trkpt lat="48.25708" lon="4.80048">
        <ele>230</ele>
        <time>2024-07-03T08:09:03Z</time>
      </trkpt>
      <trkpt lat="48.25744" lon="4.80084">
        <ele>228</ele>
        <time>2024-07-03T08:09:11Z</time>
      </trkpt>
      <trkpt lat="48.25777" lon="4.80108">
        <ele>229</ele>
        <time>2024-07-03T08:09:18Z</time>
      </trkpt>
      <trkpt lat="48.25862" lon="4.80109">
        <ele>232</ele>
        <time>2024-07-03T08:09:33Z</time>
      </trkpt>
      <trkpt lat="48.25858" lon="4.8003">
        <ele>233</ele>
        <time>2024-07-03T08:09:42Z</time>
      </trkpt>
      <trkpt lat="48.25854" lon="4.79868">
        <ele>231</ele>
        <time>2024-07-03T08:10:01Z</time>
      </trkpt>
      <trkpt lat="48.26023" lon="4.79861">
        <ele>261</ele>
        <time>2024-07-03T08:10:31Z</time>
      </trkpt>
      <trkpt lat="48.26054" lon="4.79741">
        <ele>268</ele>
        <time>2024-07-03T08:10:47Z</time>
      </trkpt>
      <trkpt lat="48.26074" lon="4.79572">
        <ele>268</ele>
        <time>2024-07-03T08:11:07Z</time>
      </trkpt>
      <trkpt lat="48.26066" lon="4.79298">
        <ele>261</ele>
        <time>2024-07-03T08:11:39Z</time>
      </trkpt>
      <trkpt lat="48.26169" lon="4.7919">
        <ele>257</ele>
        <time>2024-07-03T08:12:02Z</time>
      </trkpt>
      <trkpt lat="48.26318" lon="4.79169">
        <ele>244</ele>
        <time>2024-07-03T08:12:28Z</time>
      </trkpt>
      <trkpt lat="48.26354" lon="4.79035">
        <ele>231</ele>
        <time>2024-07-03T08:12:46Z</time>
      </trkpt>
    </trkseg>
  </trk>
</gpx>